Boyle, MS

7:31 PM CDT on July 27, 2016 (GMT -0500)
Cleveland | | Change Station

Elev 128 ft 33.70 °N, 90.75 °W | Updated 10 seconds ago

Rain
Rain
75.7 °F
Feels Like 75 °F
N
2.0
Wind Variable Wind from South
Gusts 2.5 mph

Today
High -- | Low -- °F
--% Chance of Precip.
Yesterday
High -- | Low -- °F
Precip. -- in
Pressure 29.90 in
Visibility 10.0 miles
Clouds Scattered Clouds 1200 ft
Mostly Cloudy 4500 ft
Overcast 5000 ft
Heat Index 75 °F
Dew Point 74 °F
Humidity 94%
Rainfall 1.54 in
Snow Depth Not available.
6:11 AM 8:06 PM
Last Quarter, 38% visible
METAR KRNV 280015Z AUTO 23008KT 10SM SCT012 BKN045 OVC050 24/24 A2990 RMK AO2 LTG DSNT NE T02420242
Pressure 29.90 in
Visibility 10.0 miles
Clouds Scattered Clouds 1200 ft
Mostly Cloudy 4500 ft
Overcast 5000 ft
Heat Index 75 °F
Dew Point 74 °F
Humidity 94%
Rainfall 1.54 in
Snow Depth Not available.
6:11 AM 8:06 PM
Last Quarter, 38% visible
METAR KRNV 280015Z AUTO 23008KT 10SM SCT012 BKN045 OVC050 24/24 A2990 RMK AO2 LTG DSNT NE T02420242

10-Day Weather Forecast

Almanac

Astronomy

Jul. 27, 2016 Rise Set
Actual Time
Civil Twilight
Nautical Twilight
Astronomical Twilight
Moon
Length of Visible Light
Length of Day
Tomorrow will be .
, % of the Moon is Illuminated

Today's Extremes

State Highs State Lows

Community

WunderPhotos

Upload Photos

1,927,978 photos uploaded!

WunderBlog® & News

Nearby

Air Quality

  Air Quality AQ Index Pollutant
Not available.

Snow Depth

Station Depth Elevation

Earthquake Activity

City Distance Mag. Time & Date
Minimum magnitude displayed is 2.5.

Coastal Water Temperatures

Place Temperature

Stations

Nearby Weather Stations

Station Location Temp. Windchill Dew Point Humidity Wind Precip. Elev Updated Type
                   

Watches & Warnings

There are currently no watches in effect.